createdAt,value
2022-10-31T00:02:20.393Z,12.63
2022-10-31T00:04:53.024Z,12.68
2022-10-31T00:07:27.935Z,13.90
2022-10-31T00:10:01.703Z,13.73
2022-10-31T00:12:35.295Z,12.73
2022-10-31T00:15:09.276Z,13.68
2022-10-31T00:17:52.184Z,12.68
2022-10-31T00:20:27.019Z,12.07
2022-10-31T00:23:05.048Z,11.57
2022-10-31T00:25:44.205Z,12.73
2022-10-31T00:28:24.179Z,12.60
2022-10-31T00:31:04.078Z,12.38
2022-10-31T00:33:41.028Z,11.70
2022-10-31T00:36:22.371Z,12.35
2022-10-31T00:38:57.689Z,11.75
2022-10-31T00:41:39.945Z,11.10
2022-10-31T00:44:13.525Z,11.55
2022-10-31T00:46:45.812Z,11.88
2022-10-31T00:49:24.046Z,10.57
2022-10-31T00:51:51.380Z,12.30
2022-10-31T00:54:28.541Z,10.40
2022-10-31T00:56:55.953Z,11.60
2022-10-31T00:59:24.779Z,11.32
2022-10-31T01:01:52.296Z,12.02
2022-10-31T01:04:23.372Z,13.45
2022-10-31T01:07:00.037Z,12.00
2022-10-31T01:09:28.490Z,12.45
2022-10-31T01:12:00.354Z,12.57
2022-10-31T01:17:09.228Z,11.95
2022-10-31T01:19:42.168Z,11.75
2022-10-31T01:22:14.878Z,11.88
2022-10-31T01:24:44.691Z,11.95
2022-10-31T01:27:17.059Z,12.00
2022-10-31T01:29:51.268Z,11.13
2022-10-31T01:32:28.052Z,11.20
2022-10-31T01:34:58.320Z,11.50
2022-10-31T01:37:31.253Z,11.98
2022-10-31T01:40:03.655Z,11.63
2022-10-31T01:42:35.570Z,11.10
2022-10-31T01:45:06.644Z,12.60
2022-10-31T01:47:52.724Z,12.35
2022-10-31T01:50:51.694Z,11.75
2022-10-31T01:53:25.978Z,11.77
2022-10-31T01:55:54.635Z,12.38
2022-10-31T01:58:29.081Z,12.63
2022-10-31T02:01:06.685Z,11.90
2022-10-31T02:03:35.488Z,11.88
2022-10-31T02:06:15.380Z,13.15
2022-10-31T02:08:44.944Z,13.07
2022-10-31T02:11:16.120Z,12.30
2022-10-31T02:13:48.758Z,12.18
2022-10-31T02:16:21.052Z,12.32
2022-10-31T02:18:53.260Z,12.50
2022-10-31T02:21:52.152Z,11.10
2022-10-31T02:24:28.422Z,11.85
2022-10-31T02:27:07.248Z,12.45
2022-10-31T02:29:37.610Z,12.10
2022-10-31T02:32:47.346Z,12.00
2022-10-31T02:35:36.361Z,10.77
2022-10-31T02:38:18.501Z,12.68
2022-10-31T02:41:01.443Z,11.32
2022-10-31T02:43:55.242Z,12.32
2022-10-31T02:46:29.325Z,10.98
2022-10-31T02:49:01.768Z,10.90
2022-10-31T02:51:29.518Z,12.07
2022-10-31T02:53:56.568Z,11.82
2022-10-31T02:56:23.803Z,11.68
2022-10-31T02:59:09.050Z,12.13
2022-10-31T03:01:40.383Z,11.88
2022-10-31T03:04:52.971Z,11.20
2022-10-31T03:07:50.934Z,11.45
2022-10-31T03:10:44.808Z,11.35
2022-10-31T03:13:35.911Z,12.02
2022-10-31T03:16:20.700Z,10.20
2022-10-31T03:19:01.061Z,12.52
2022-10-31T03:21:45.498Z,11.32
2022-10-31T03:24:14.896Z,12.15
2022-10-31T03:26:48.046Z,13.05
2022-10-31T03:29:18.381Z,13.80
2022-10-31T03:31:56.214Z,11.55
2022-10-31T03:34:24.616Z,11.20
2022-10-31T03:36:58.602Z,12.18
2022-10-31T03:39:25.974Z,11.63
2022-10-31T03:41:59.244Z,11.57
2022-10-31T03:47:01.120Z,11.15
2022-10-31T03:49:29.779Z,12.70
2022-10-31T03:52:06.672Z,12.73
2022-10-31T03:54:47.986Z,11.93
2022-10-31T03:57:30.915Z,11.65
2022-10-31T04:00:18.955Z,11.77
2022-10-31T04:02:57.201Z,11.63
2022-10-31T04:05:26.838Z,11.52
2022-10-31T04:08:01.964Z,11.88
2022-10-31T04:10:33.153Z,11.60
2022-10-31T04:13:11.720Z,11.00
2022-10-31T04:15:47.031Z,10.30
2022-10-31T04:18:15.996Z,10.65
2022-10-31T04:20:43.431Z,11.15
2022-10-31T04:23:22.275Z,12.10
2022-10-31T04:25:50.567Z,10.85
2022-10-31T04:30:50.458Z,11.30
2022-10-31T04:33:18.158Z,10.95
2022-10-31T04:35:48.576Z,10.90
2022-10-31T04:38:16.768Z,10.80
2022-10-31T04:40:46.407Z,10.32
2022-10-31T04:43:31.755Z,10.35
2022-10-31T04:46:09.495Z,10.80
2022-10-31T04:48:36.907Z,9.63
2022-10-31T04:51:06.822Z,10.65
2022-10-31T04:53:34.336Z,10.05
2022-10-31T04:56:24.596Z,9.38
2022-10-31T04:58:57.315Z,10.05
2022-10-31T05:01:38.512Z,9.35
2022-10-31T05:04:23.467Z,10.45
2022-10-31T05:06:56.227Z,8.90
2022-10-31T05:09:32.495Z,9.85
2022-10-31T05:12:16.416Z,9.27
2022-10-31T05:15:14.817Z,9.93
2022-10-31T05:18:13.638Z,9.38
2022-10-31T05:21:12.643Z,9.68
2022-10-31T05:23:58.305Z,9.23
2022-10-31T05:26:37.088Z,9.32
2022-10-31T05:29:21.276Z,9.75
2022-10-31T05:31:59.548Z,9.88
2022-10-31T05:35:09.882Z,8.40
2022-10-31T05:38:04.587Z,9.05
2022-10-31T05:40:50.368Z,8.93
2022-10-31T05:43:39.122Z,8.82
2022-10-31T05:46:27.212Z,9.00
2022-10-31T05:49:21.734Z,9.40
2022-10-31T05:52:16.031Z,9.57
2022-10-31T05:54:57.016Z,9.57
2022-10-31T05:57:33.657Z,9.30
2022-10-31T06:00:18.762Z,10.10
2022-10-31T06:03:13.068Z,10.25
2022-10-31T06:06:01.615Z,10.90
2022-10-31T06:08:40.343Z,9.55
2022-10-31T06:11:13.771Z,9.90
2022-10-31T06:13:59.822Z,9.75
2022-10-31T06:16:40.443Z,10.98
2022-10-31T06:19:42.609Z,10.38
2022-10-31T06:22:25.990Z,9.88
2022-10-31T06:24:59.852Z,10.45
2022-10-31T06:27:34.471Z,10.20
2022-10-31T06:30:14.429Z,9.75
2022-10-31T06:32:49.169Z,9.60
2022-10-31T06:35:23.595Z,11.02
2022-10-31T06:38:03.987Z,10.18
2022-10-31T06:40:40.108Z,10.68
2022-10-31T06:43:37.230Z,10.75
2022-10-31T06:46:29.120Z,10.35
2022-10-31T06:49:20.592Z,11.43
2022-10-31T06:52:05.735Z,9.43
2022-10-31T06:54:49.314Z,11.48
2022-10-31T06:57:20.169Z,11.07
2022-10-31T06:59:55.365Z,10.93
2022-10-31T07:03:05.037Z,10.05
2022-10-31T07:05:40.143Z,10.00
2022-10-31T07:08:13.592Z,10.77
2022-10-31T07:10:43.192Z,10.10
2022-10-31T07:13:18.397Z,9.60
2022-10-31T07:15:56.449Z,10.20
2022-10-31T07:18:23.986Z,9.50
2022-10-31T07:20:51.157Z,9.50
2022-10-31T07:23:19.362Z,10.43
2022-10-31T07:26:03.118Z,9.23
2022-10-31T07:28:40.427Z,10.70
2022-10-31T07:31:11.170Z,9.68
2022-10-31T07:33:39.657Z,10.32
2022-10-31T07:36:30.184Z,9.77
2022-10-31T07:39:05.620Z,10.75
2022-10-31T07:41:35.674Z,9.90
2022-10-31T07:44:03.394Z,9.43
2022-10-31T07:46:30.901Z,10.82
2022-10-31T07:49:17.664Z,11.35
2022-10-31T07:52:03.666Z,10.50
2022-10-31T07:54:49.185Z,10.35
2022-10-31T07:57:25.920Z,9.70
2022-10-31T07:59:55.452Z,10.30
2022-10-31T08:02:31.413Z,9.85
2022-10-31T08:05:35.181Z,10.20
2022-10-31T08:08:23.565Z,10.55
2022-10-31T08:10:50.967Z,10.40
2022-10-31T08:13:18.971Z,10.50
2022-10-31T08:15:53.288Z,10.35
2022-10-31T08:18:25.437Z,9.95
2022-10-31T08:20:54.908Z,9.52
2022-10-31T08:23:23.108Z,10.30
2022-10-31T08:25:50.627Z,11.18
2022-10-31T08:28:18.455Z,10.18
2022-10-31T08:30:49.682Z,10.55
2022-10-31T08:33:35.211Z,10.20
2022-10-31T08:36:23.888Z,11.10
2022-10-31T08:39:02.020Z,10.98
2022-10-31T08:41:31.556Z,10.20
2022-10-31T08:44:03.360Z,9.50
2022-10-31T08:46:30.930Z,10.85
2022-10-31T08:48:58.786Z,10.60
2022-10-31T08:54:08.154Z,10.63
2022-10-31T08:56:57.516Z,11.63
2022-10-31T08:59:47.707Z,11.23
2022-10-31T09:02:41.594Z,11.68
2022-10-31T09:05:09.446Z,11.02
2022-10-31T09:07:39.767Z,10.88
2022-10-31T09:10:07.537Z,12.23
2022-10-31T09:12:44.938Z,11.13
2022-10-31T09:15:45.160Z,12.27
2022-10-31T09:18:30.695Z,11.63
2022-10-31T09:21:06.513Z,11.93
2022-10-31T09:23:44.582Z,11.48
2022-10-31T09:26:20.099Z,11.13
2022-10-31T09:29:10.883Z,10.20
2022-10-31T09:31:44.793Z,10.57
2022-10-31T09:34:51.329Z,10.75
2022-10-31T09:37:25.222Z,12.40
2022-10-31T09:39:55.584Z,9.10
2022-10-31T09:43:01.578Z,8.70
2022-10-31T09:45:50.349Z,10.30
2022-10-31T09:49:09.645Z,9.20
2022-10-31T09:52:36.983Z,9.65
2022-10-31T09:55:23.921Z,8.52
2022-10-31T09:58:05.930Z,9.55
2022-10-31T10:03:38.489Z,8.07
2022-10-31T10:06:34.417Z,7.57
2022-10-31T10:09:43.085Z,8.45
2022-10-31T10:13:01.156Z,8.80
2022-10-31T10:16:22.846Z,8.82
2022-10-31T10:19:14.709Z,8.68
2022-10-31T10:22:10.462Z,7.47
2022-10-31T10:24:58.188Z,9.02
2022-10-31T10:28:13.606Z,8.02
2022-10-31T10:30:58.588Z,10.30
2022-10-31T10:34:00.938Z,8.25
2022-10-31T10:36:41.401Z,8.40
2022-10-31T10:39:33.742Z,7.30
2022-10-31T10:42:36.488Z,8.35
2022-10-31T10:45:46.678Z,8.65
2022-10-31T10:48:42.484Z,8.75
2022-10-31T10:54:41.318Z,9.98
2022-10-31T10:57:53.941Z,7.95
2022-10-31T11:00:29.081Z,8.18
2022-10-31T11:02:57.421Z,7.72
2022-10-31T11:05:41.296Z,8.82
2022-10-31T11:08:10.669Z,8.25
2022-10-31T11:10:40.799Z,8.20
2022-10-31T11:13:23.798Z,7.53
2022-10-31T11:16:02.532Z,8.60
2022-10-31T11:18:43.250Z,9.25
2022-10-31T11:21:33.990Z,8.65
2022-10-31T11:24:12.833Z,8.68
2022-10-31T11:26:44.490Z,9.48
2022-10-31T11:32:55.459Z,7.47
2022-10-31T11:35:40.519Z,6.82
2022-10-31T11:38:26.385Z,7.15
2022-10-31T11:41:28.127Z,6.28
2022-10-31T11:44:05.384Z,7.43
2022-10-31T11:46:55.209Z,6.90
2022-10-31T11:50:01.574Z,6.85
2022-10-31T11:52:37.527Z,7.65
2022-10-31T11:55:46.729Z,6.78
2022-10-31T11:58:28.743Z,8.98
2022-10-31T12:00:59.161Z,8.98
2022-10-31T12:04:03.626Z,6.20
2022-10-31T12:06:52.745Z,7.53
2022-10-31T12:09:33.665Z,6.97
2022-10-31T12:12:15.196Z,8.15
2022-10-31T12:15:20.782Z,6.35
2022-10-31T12:18:03.797Z,5.85
2022-10-31T12:20:59.421Z,7.68
2022-10-31T12:24:04.679Z,7.72
2022-10-31T12:27:02.853Z,7.30
2022-10-31T12:29:48.219Z,6.95
2022-10-31T12:32:43.905Z,7.13
2022-10-31T12:35:57.334Z,7.53
2022-10-31T12:39:10.140Z,8.73
2022-10-31T12:42:01.731Z,7.93
2022-10-31T12:45:17.792Z,7.00
2022-10-31T12:48:10.481Z,6.97
2022-10-31T12:51:18.972Z,6.20
2022-10-31T12:54:17.994Z,7.05
2022-10-31T12:57:10.467Z,7.18
2022-10-31T12:59:54.141Z,6.82
2022-10-31T13:02:55.048Z,5.88
2022-10-31T13:05:37.752Z,7.57
2022-10-31T13:08:11.821Z,8.38
2022-10-31T13:13:47.664Z,7.75
2022-10-31T13:19:52.281Z,8.43
2022-10-31T13:25:32.078Z,7.05
2022-10-31T13:28:46.024Z,8.07
2022-10-31T13:31:16.383Z,7.80
2022-10-31T13:33:52.375Z,8.50
2022-10-31T13:36:36.153Z,8.10
2022-10-31T13:39:27.655Z,8.07
2022-10-31T13:42:37.917Z,8.25
2022-10-31T13:45:34.235Z,8.98
2022-10-31T13:48:44.452Z,7.78
2022-10-31T13:51:19.078Z,8.07
2022-10-31T13:54:04.161Z,8.13
2022-10-31T13:56:41.880Z,8.65
2022-10-31T13:59:40.898Z,8.68
2022-10-31T14:02:33.738Z,8.48
2022-10-31T14:05:44.959Z,8.25
2022-10-31T14:08:34.887Z,8.35
2022-10-31T14:11:37.304Z,8.90
2022-10-31T14:14:15.294Z,8.68
2022-10-31T14:17:03.490Z,9.13
2022-10-31T14:19:34.480Z,8.60
2022-10-31T14:22:20.872Z,8.88
2022-10-31T14:25:03.343Z,9.05
2022-10-31T14:27:38.329Z,8.85
2022-10-31T14:30:35.041Z,8.32
2022-10-31T14:33:25.886Z,7.88
2022-10-31T14:36:11.402Z,9.05
2022-10-31T14:39:11.978Z,8.60
2022-10-31T14:42:19.471Z,8.60
2022-10-31T14:45:15.460Z,9.38
2022-10-31T14:48:27.464Z,8.75
2022-10-31T14:50:59.147Z,8.43
2022-10-31T14:53:30.602Z,10.05
2022-10-31T14:56:07.167Z,8.40
2022-10-31T14:58:51.388Z,11.43
2022-10-31T15:01:53.734Z,10.73
2022-10-31T15:04:34.007Z,9.48
2022-10-31T15:07:24.841Z,9.80
2022-10-31T15:10:08.175Z,10.20
2022-10-31T15:12:44.840Z,9.18
2022-10-31T15:15:27.654Z,10.65
2022-10-31T15:18:08.347Z,10.03
2022-10-31T15:20:52.004Z,13.30
2022-10-31T15:23:56.795Z,11.82
2022-10-31T15:26:36.616Z,10.07
2022-10-31T15:29:07.131Z,10.68
2022-10-31T15:31:34.757Z,10.93
2022-10-31T15:34:21.623Z,10.30
2022-10-31T15:36:52.497Z,10.18
2022-10-31T15:39:23.132Z,10.02
2022-10-31T15:42:03.508Z,9.93
2022-10-31T15:44:40.147Z,10.05
2022-10-31T15:47:28.945Z,10.10
2022-10-31T15:50:16.930Z,10.50
2022-10-31T15:52:55.864Z,9.45
2022-10-31T15:55:34.711Z,10.88
2022-10-31T15:58:21.353Z,11.25
2022-10-31T16:01:29.749Z,11.20
2022-10-31T16:04:36.902Z,11.23
2022-10-31T16:07:26.925Z,12.40
2022-10-31T16:10:05.777Z,10.52
2022-10-31T16:12:47.460Z,9.82
2022-10-31T16:15:36.679Z,9.88
2022-10-31T16:18:18.773Z,10.52
2022-10-31T16:21:05.949Z,10.73
2022-10-31T16:24:02.729Z,9.57
2022-10-31T16:26:40.563Z,11.55
2022-10-31T16:29:44.193Z,10.23
2022-10-31T16:32:56.859Z,9.52
2022-10-31T16:35:40.749Z,11.52
2022-10-31T16:38:38.978Z,10.43
2022-10-31T16:41:41.187Z,11.48
2022-10-31T16:44:55.673Z,11.23
2022-10-31T16:50:52.673Z,10.85
2022-10-31T16:57:05.512Z,10.82
2022-10-31T16:59:53.587Z,11.15
2022-10-31T17:02:41.449Z,11.02
2022-10-31T17:05:45.076Z,11.27
2022-10-31T17:08:38.099Z,12.27
2022-10-31T17:11:17.828Z,11.20
2022-10-31T17:14:32.773Z,10.20
2022-10-31T17:17:20.849Z,10.95
2022-10-31T17:20:01.546Z,10.85
2022-10-31T17:22:40.977Z,11.18
2022-10-31T17:25:51.135Z,11.27
2022-10-31T17:28:46.227Z,10.77
2022-10-31T17:31:59.451Z,11.70
2022-10-31T17:34:39.092Z,11.63
2022-10-31T17:37:21.090Z,11.27
2022-10-31T17:40:15.807Z,12.60
2022-10-31T17:46:18.611Z,11.70
2022-10-31T17:49:01.628Z,11.75
2022-10-31T17:51:40.384Z,11.35
2022-10-31T17:54:13.759Z,11.50
2022-10-31T17:59:30.778Z,14.70
2022-10-31T18:02:34.496Z,14.60
2022-10-31T18:05:11.176Z,14.35
2022-10-31T18:07:49.419Z,13.27
2022-10-31T18:10:43.218Z,17.60
2022-10-31T18:13:25.989Z,14.57
2022-10-31T18:15:58.282Z,11.98
2022-10-31T18:18:35.271Z,12.50
2022-10-31T18:21:13.094Z,14.45
2022-10-31T18:24:04.178Z,13.23
2022-10-31T18:27:05.164Z,15.38
2022-10-31T18:29:41.428Z,15.48
2022-10-31T18:32:17.200Z,16.05
2022-10-31T18:34:48.559Z,15.95
2022-10-31T18:37:32.739Z,14.93
2022-10-31T18:40:06.302Z,13.88
2022-10-31T18:42:45.629Z,13.48
2022-10-31T18:45:32.460Z,14.40
2022-10-31T18:48:14.663Z,13.55
2022-10-31T18:50:53.890Z,14.13
2022-10-31T18:53:40.678Z,13.40
2022-10-31T18:56:25.115Z,12.50
2022-10-31T18:59:17.671Z,13.00
2022-10-31T19:01:49.757Z,12.25
2022-10-31T19:04:38.647Z,12.45
2022-10-31T19:07:28.252Z,12.52
2022-10-31T19:10:30.764Z,14.73
2022-10-31T19:13:16.395Z,13.88
2022-10-31T19:15:55.827Z,15.18
2022-10-31T19:18:32.067Z,16.05
2022-10-31T19:21:08.154Z,14.75
2022-10-31T19:26:35.256Z,14.05
2022-10-31T19:29:13.379Z,14.07
2022-10-31T19:31:52.628Z,13.15
2022-10-31T19:34:30.928Z,11.88
2022-10-31T19:37:03.317Z,11.55
2022-10-31T19:39:34.447Z,9.93
2022-10-31T19:42:13.363Z,10.57
2022-10-31T19:44:43.831Z,10.90
2022-10-31T19:47:16.790Z,12.10
2022-10-31T19:49:50.547Z,10.88
2022-10-31T19:52:27.726Z,20.10
2022-10-31T19:54:56.308Z,14.40
2022-10-31T20:00:49.866Z,13.75
2022-10-31T20:03:32.222Z,13.57
2022-10-31T20:06:09.199Z,12.57
2022-10-31T20:08:39.647Z,12.32
2022-10-31T20:11:16.513Z,12.88
2022-10-31T20:13:56.719Z,12.43
2022-10-31T20:16:35.782Z,12.25
2022-10-31T20:19:15.439Z,10.80
2022-10-31T20:21:52.289Z,13.65
2022-10-31T20:24:25.663Z,11.70
2022-10-31T20:27:07.410Z,12.38
2022-10-31T20:29:46.946Z,13.98
2022-10-31T20:35:15.605Z,11.25
2022-10-31T20:37:48.881Z,11.98
2022-10-31T20:40:27.096Z,12.95
2022-10-31T20:43:09.700Z,12.50
2022-10-31T20:46:00.046Z,11.90
2022-10-31T20:48:31.318Z,10.77
2022-10-31T20:51:09.371Z,11.15
2022-10-31T20:53:53.443Z,11.32
2022-10-31T20:59:28.039Z,11.45
2022-10-31T21:01:58.686Z,11.82
2022-10-31T21:05:17.898Z,11.23
2022-10-31T21:07:52.150Z,10.55
2022-10-31T21:10:26.928Z,11.05
2022-10-31T21:12:57.455Z,12.30
2022-10-31T21:15:28.088Z,12.10
2022-10-31T21:17:58.253Z,11.13
2022-10-31T21:20:29.008Z,11.63
2022-10-31T21:23:02.033Z,11.32
2022-10-31T21:25:29.791Z,11.52
2022-10-31T21:28:00.223Z,11.30
2022-10-31T21:30:36.424Z,11.32
2022-10-31T21:33:13.975Z,11.10
2022-10-31T21:35:55.523Z,10.85
2022-10-31T21:38:29.513Z,11.10
2022-10-31T21:41:24.362Z,11.60
2022-10-31T21:44:02.481Z,11.30
2022-10-31T21:46:52.169Z,10.57
2022-10-31T21:49:35.422Z,11.60
2022-10-31T21:52:19.719Z,11.85
2022-10-31T21:55:09.431Z,10.32
2022-10-31T21:58:00.109Z,9.30
2022-10-31T22:00:51.546Z,9.95
2022-10-31T22:07:13.279Z,10.35
2022-10-31T22:09:58.606Z,10.48
2022-10-31T22:13:02.970Z,10.07
2022-10-31T22:18:32.625Z,9.43
2022-10-31T22:21:33.387Z,9.45
2022-10-31T22:24:50.263Z,9.50
2022-10-31T22:27:38.718Z,9.38
2022-10-31T22:30:20.728Z,9.05
2022-10-31T22:33:15.512Z,9.40
2022-10-31T22:40:01.011Z,8.63
2022-10-31T22:42:41.159Z,8.32
2022-10-31T22:45:20.009Z,9.23
2022-10-31T22:48:08.005Z,9.15
2022-10-31T22:50:58.097Z,9.45
2022-10-31T22:53:31.788Z,9.30
2022-10-31T22:56:16.510Z,8.52
2022-10-31T23:01:30.457Z,8.68
2022-10-31T23:04:08.941Z,9.75
2022-10-31T23:06:41.468Z,9.15
2022-10-31T23:09:19.605Z,11.40
2022-10-31T23:11:51.711Z,9.07
2022-10-31T23:14:21.796Z,9.43
2022-10-31T23:17:03.510Z,9.57
2022-10-31T23:19:35.105Z,10.00
2022-10-31T23:22:04.846Z,9.93
2022-10-31T23:24:43.092Z,9.80
2022-10-31T23:27:27.563Z,10.27
2022-10-31T23:29:59.638Z,9.88
2022-10-31T23:32:33.052Z,10.60
2022-10-31T23:35:02.997Z,9.38
2022-10-31T23:37:33.454Z,9.73
2022-10-31T23:40:08.084Z,9.88
2022-10-31T23:42:38.771Z,8.95
2022-10-31T23:45:06.614Z,9.70
2022-10-31T23:47:38.336Z,10.75
2022-10-31T23:50:11.809Z,9.00
2022-10-31T23:52:42.879Z,10.25
2022-10-31T23:55:13.937Z,8.98
2022-10-31T23:57:49.666Z,9.80
